sensor_id;sensor_type;location;lat;lon;timestamp;P1;durP1;ratioP1;P2;durP2;ratioP2
24631;SDS011;59977;48.782;9.190;2023-07-24T00:01:23;19.73;;;8.82;;
24631;SDS011;59977;48.782;9.190;2023-07-24T00:03:49;19.08;;;9.65;;
24631;SDS011;59977;48.782;9.190;2023-07-24T00:06:15;15.63;;;8.75;;
24631;SDS011;59977;48.782;9.190;2023-07-24T00:08:41;25.65;;;8.50;;
24631;SDS011;59977;48.782;9.190;2023-07-24T00:11:07;14.85;;;8.50;;
24631;SDS011;59977;48.782;9.190;2023-07-24T00:13:34;15.70;;;8.52;;
24631;SDS011;59977;48.782;9.190;2023-07-24T00:16:00;18.50;;;9.00;;
24631;SDS011;59977;48.782;9.190;2023-07-24T00:18:26;15.25;;;8.93;;
24631;SDS011;59977;48.782;9.190;2023-07-24T00:20:51;25.25;;;9.15;;
24631;SDS011;59977;48.782;9.190;2023-07-24T00:23:17;17.00;;;8.70;;
24631;SDS011;59977;48.782;9.190;2023-07-24T00:25:43;12.73;;;8.25;;
24631;SDS011;59977;48.782;9.190;2023-07-24T00:28:10;14.05;;;8.85;;
24631;SDS011;59977;48.782;9.190;2023-07-24T00:30:35;14.82;;;8.75;;
24631;SDS011;59977;48.782;9.190;2023-07-24T00:33:01;13.77;;;8.57;;
24631;SDS011;59977;48.782;9.190;2023-07-24T00:35:27;14.20;;;8.88;;
24631;SDS011;59977;48.782;9.190;2023-07-24T00:37:53;14.73;;;7.95;;
24631;SDS011;59977;48.782;9.190;2023-07-24T00:40:19;16.73;;;8.30;;
24631;SDS011;59977;48.782;9.190;2023-07-24T00:42:46;14.23;;;8.40;;
24631;SDS011;59977;48.782;9.190;2023-07-24T00:45:13;12.98;;;8.25;;
24631;SDS011;59977;48.782;9.190;2023-07-24T00:47:39;18.80;;;8.50;;
24631;SDS011;59977;48.782;9.190;2023-07-24T00:50:05;14.75;;;8.75;;
24631;SDS011;59977;48.782;9.190;2023-07-24T00:52:32;17.90;;;9.52;;
24631;SDS011;59977;48.782;9.190;2023-07-24T00:54:58;15.60;;;8.73;;
24631;SDS011;59977;48.782;9.190;2023-07-24T00:57:24;13.75;;;8.77;;
24631;SDS011;59977;48.782;9.190;2023-07-24T00:59:50;14.73;;;8.35;;
24631;SDS011;59977;48.782;9.190;2023-07-24T01:02:16;14.18;;;8.52;;
24631;SDS011;59977;48.782;9.190;2023-07-24T01:04:42;14.50;;;8.50;;
24631;SDS011;59977;48.782;9.190;2023-07-24T01:07:08;15.20;;;8.32;;
24631;SDS011;59977;48.782;9.190;2023-07-24T01:09:34;15.02;;;8.65;;
24631;SDS011;59977;48.782;9.190;2023-07-24T01:12:19;13.45;;;8.20;;
24631;SDS011;59977;48.782;9.190;2023-07-24T01:15:00;13.35;;;8.27;;
24631;SDS011;59977;48.782;9.190;2023-07-24T01:17:27;15.40;;;8.05;;
24631;SDS011;59977;48.782;9.190;2023-07-24T01:19:57;13.00;;;7.88;;
24631;SDS011;59977;48.782;9.190;2023-07-24T01:27:33;13.30;;;8.18;;
24631;SDS011;59977;48.782;9.190;2023-07-24T01:29:59;13.35;;;7.97;;
24631;SDS011;59977;48.782;9.190;2023-07-24T01:32:25;15.15;;;8.43;;
24631;SDS011;59977;48.782;9.190;2023-07-24T01:34:52;14.57;;;8.00;;
24631;SDS011;59977;48.782;9.190;2023-07-24T01:37:19;12.32;;;7.93;;
24631;SDS011;59977;48.782;9.190;2023-07-24T01:39:46;13.65;;;7.97;;
24631;SDS011;59977;48.782;9.190;2023-07-24T01:42:13;13.60;;;8.32;;
24631;SDS011;59977;48.782;9.190;2023-07-24T01:44:39;15.80;;;9.43;;
24631;SDS011;59977;48.782;9.190;2023-07-24T01:47:05;14.20;;;8.27;;
24631;SDS011;59977;48.782;9.190;2023-07-24T01:49:31;12.23;;;8.23;;
24631;SDS011;59977;48.782;9.190;2023-07-24T01:51:57;13.00;;;8.23;;
24631;SDS011;59977;48.782;9.190;2023-07-24T01:54:23;12.88;;;8.55;;
24631;SDS011;59977;48.782;9.190;2023-07-24T01:56:49;12.90;;;7.85;;
24631;SDS011;59977;48.782;9.190;2023-07-24T01:59:15;12.13;;;7.85;;
24631;SDS011;59977;48.782;9.190;2023-07-24T02:01:41;13.13;;;7.88;;
24631;SDS011;59977;48.782;9.190;2023-07-24T02:04:07;13.82;;;7.82;;
24631;SDS011;59977;48.782;9.190;2023-07-24T02:06:33;13.35;;;8.10;;
24631;SDS011;59977;48.782;9.190;2023-07-24T02:08:59;13.13;;;7.78;;
24631;SDS011;59977;48.782;9.190;2023-07-24T02:11:25;12.20;;;7.78;;
24631;SDS011;59977;48.782;9.190;2023-07-24T02:13:51;14.75;;;8.60;;
24631;SDS011;59977;48.782;9.190;2023-07-24T02:16:17;12.60;;;7.32;;
24631;SDS011;59977;48.782;9.190;2023-07-24T02:18:43;13.80;;;8.02;;
24631;SDS011;59977;48.782;9.190;2023-07-24T02:21:09;16.50;;;8.50;;
24631;SDS011;59977;48.782;9.190;2023-07-24T02:23:35;12.07;;;7.50;;
24631;SDS011;59977;48.782;9.190;2023-07-24T02:26:01;11.82;;;8.13;;
24631;SDS011;59977;48.782;9.190;2023-07-24T02:28:27;10.45;;;7.65;;
24631;SDS011;59977;48.782;9.190;2023-07-24T02:30:53;15.13;;;8.10;;
24631;SDS011;59977;48.782;9.190;2023-07-24T02:33:21;15.55;;;7.72;;
24631;SDS011;59977;48.782;9.190;2023-07-24T02:35:49;13.05;;;7.47;;
24631;SDS011;59977;48.782;9.190;2023-07-24T02:38:15;15.55;;;7.97;;
24631;SDS011;59977;48.782;9.190;2023-07-24T02:40:41;12.85;;;7.43;;
24631;SDS011;59977;48.782;9.190;2023-07-24T02:43:07;13.93;;;8.18;;
24631;SDS011;59977;48.782;9.190;2023-07-24T02:45:37;14.07;;;8.23;;
24631;SDS011;59977;48.782;9.190;2023-07-24T02:48:03;12.63;;;7.85;;
24631;SDS011;59977;48.782;9.190;2023-07-24T02:50:29;12.38;;;8.15;;
24631;SDS011;59977;48.782;9.190;2023-07-24T02:52:55;13.32;;;8.13;;
24631;SDS011;59977;48.782;9.190;2023-07-24T02:55:21;11.98;;;8.05;;
24631;SDS011;59977;48.782;9.190;2023-07-24T02:57:47;12.75;;;7.70;;
24631;SDS011;59977;48.782;9.190;2023-07-24T03:00:13;11.60;;;7.57;;
24631;SDS011;59977;48.782;9.190;2023-07-24T03:02:39;13.02;;;8.13;;
24631;SDS011;59977;48.782;9.190;2023-07-24T03:05:08;14.95;;;7.95;;
24631;SDS011;59977;48.782;9.190;2023-07-24T03:07:34;12.82;;;8.38;;
24631;SDS011;59977;48.782;9.190;2023-07-24T03:10:01;15.10;;;8.32;;
24631;SDS011;59977;48.782;9.190;2023-07-24T03:12:27;13.95;;;8.07;;
24631;SDS011;59977;48.782;9.190;2023-07-24T03:14:52;17.00;;;8.55;;
24631;SDS011;59977;48.782;9.190;2023-07-24T03:17:18;11.82;;;8.00;;
24631;SDS011;59977;48.782;9.190;2023-07-24T03:19:44;13.32;;;8.07;;
24631;SDS011;59977;48.782;9.190;2023-07-24T03:22:10;10.90;;;7.63;;
24631;SDS011;59977;48.782;9.190;2023-07-24T03:24:37;15.43;;;8.15;;
24631;SDS011;59977;48.782;9.190;2023-07-24T03:27:03;11.88;;;7.70;;
24631;SDS011;59977;48.782;9.190;2023-07-24T03:29:29;12.27;;;7.82;;
24631;SDS011;59977;48.782;9.190;2023-07-24T03:31:55;13.23;;;7.82;;
24631;SDS011;59977;48.782;9.190;2023-07-24T03:34:21;12.77;;;8.02;;
24631;SDS011;59977;48.782;9.190;2023-07-24T03:36:47;13.85;;;8.13;;
24631;SDS011;59977;48.782;9.190;2023-07-24T03:39:13;17.50;;;8.50;;
24631;SDS011;59977;48.782;9.190;2023-07-24T03:41:39;15.32;;;7.97;;
24631;SDS011;59977;48.782;9.190;2023-07-24T03:44:05;11.23;;;7.65;;
24631;SDS011;59977;48.782;9.190;2023-07-24T03:46:31;13.73;;;8.05;;
24631;SDS011;59977;48.782;9.190;2023-07-24T03:48:57;16.15;;;8.45;;
24631;SDS011;59977;48.782;9.190;2023-07-24T03:51:23;15.05;;;8.63;;
24631;SDS011;59977;48.782;9.190;2023-07-24T03:53:49;13.13;;;8.38;;
24631;SDS011;59977;48.782;9.190;2023-07-24T03:56:15;10.95;;;7.78;;
24631;SDS011;59977;48.782;9.190;2023-07-24T03:58:42;14.48;;;8.43;;
24631;SDS011;59977;48.782;9.190;2023-07-24T04:01:08;11.98;;;7.55;;
24631;SDS011;59977;48.782;9.190;2023-07-24T04:03:34;19.48;;;8.25;;
24631;SDS011;59977;48.782;9.190;2023-07-24T04:06:01;14.40;;;7.63;;
24631;SDS011;59977;48.782;9.190;2023-07-24T04:08:27;14.18;;;8.45;;
24631;SDS011;59977;48.782;9.190;2023-07-24T04:10:53;19.58;;;9.60;;
24631;SDS011;59977;48.782;9.190;2023-07-24T04:13:21;16.35;;;7.38;;
24631;SDS011;59977;48.782;9.190;2023-07-24T04:15:47;13.55;;;8.20;;
24631;SDS011;59977;48.782;9.190;2023-07-24T04:18:13;13.65;;;8.27;;
24631;SDS011;59977;48.782;9.190;2023-07-24T04:20:39;13.20;;;8.40;;
24631;SDS011;59977;48.782;9.190;2023-07-24T04:23:05;18.02;;;8.45;;
24631;SDS011;59977;48.782;9.190;2023-07-24T04:25:31;14.82;;;8.20;;
24631;SDS011;59977;48.782;9.190;2023-07-24T04:27:58;13.43;;;8.15;;
24631;SDS011;59977;48.782;9.190;2023-07-24T04:30:24;15.20;;;8.70;;
24631;SDS011;59977;48.782;9.190;2023-07-24T04:32:50;17.48;;;8.23;;
24631;SDS011;59977;48.782;9.190;2023-07-24T04:35:16;15.95;;;8.70;;
24631;SDS011;59977;48.782;9.190;2023-07-24T04:37:42;15.15;;;8.27;;
24631;SDS011;59977;48.782;9.190;2023-07-24T04:40:08;13.43;;;8.40;;
24631;SDS011;59977;48.782;9.190;2023-07-24T04:42:35;14.02;;;8.00;;
24631;SDS011;59977;48.782;9.190;2023-07-24T04:45:01;16.63;;;8.10;;
24631;SDS011;59977;48.782;9.190;2023-07-24T04:47:27;19.00;;;9.55;;
24631;SDS011;59977;48.782;9.190;2023-07-24T04:49:53;21.48;;;9.27;;
24631;SDS011;59977;48.782;9.190;2023-07-24T04:52:20;20.60;;;9.45;;
24631;SDS011;59977;48.782;9.190;2023-07-24T04:54:46;20.33;;;8.73;;
24631;SDS011;59977;48.782;9.190;2023-07-24T04:57:12;21.35;;;8.88;;
24631;SDS011;59977;48.782;9.190;2023-07-24T04:59:38;17.05;;;8.82;;
24631;SDS011;59977;48.782;9.190;2023-07-24T05:02:04;18.38;;;9.10;;
24631;SDS011;59977;48.782;9.190;2023-07-24T05:04:30;22.33;;;9.88;;
24631;SDS011;59977;48.782;9.190;2023-07-24T05:06:56;29.08;;;9.70;;
24631;SDS011;59977;48.782;9.190;2023-07-24T05:09:22;21.90;;;9.98;;
24631;SDS011;59977;48.782;9.190;2023-07-24T05:11:48;22.77;;;8.48;;
24631;SDS011;59977;48.782;9.190;2023-07-24T05:14:14;20.42;;;9.50;;
24631;SDS011;59977;48.782;9.190;2023-07-24T05:16:40;16.08;;;9.27;;
24631;SDS011;59977;48.782;9.190;2023-07-24T05:19:06;18.40;;;7.80;;
24631;SDS011;59977;48.782;9.190;2023-07-24T05:21:32;15.93;;;7.93;;
24631;SDS011;59977;48.782;9.190;2023-07-24T05:23:58;13.98;;;8.38;;
24631;SDS011;59977;48.782;9.190;2023-07-24T05:26:24;14.63;;;8.30;;
24631;SDS011;59977;48.782;9.190;2023-07-24T05:28:50;12.27;;;8.00;;
24631;SDS011;59977;48.782;9.190;2023-07-24T05:31:17;14.32;;;7.70;;
24631;SDS011;59977;48.782;9.190;2023-07-24T05:33:43;16.20;;;8.60;;
24631;SDS011;59977;48.782;9.190;2023-07-24T05:36:10;16.52;;;8.38;;
24631;SDS011;59977;48.782;9.190;2023-07-24T05:38:36;16.08;;;8.45;;
24631;SDS011;59977;48.782;9.190;2023-07-24T05:41:02;16.33;;;7.90;;
24631;SDS011;59977;48.782;9.190;2023-07-24T05:43:29;17.83;;;8.88;;
24631;SDS011;59977;48.782;9.190;2023-07-24T05:45:56;17.50;;;7.97;;
24631;SDS011;59977;48.782;9.190;2023-07-24T05:48:22;19.92;;;8.25;;
24631;SDS011;59977;48.782;9.190;2023-07-24T05:50:49;19.25;;;8.25;;
24631;SDS011;59977;48.782;9.190;2023-07-24T05:53:15;17.77;;;8.10;;
24631;SDS011;59977;48.782;9.190;2023-07-24T05:55:41;19.45;;;9.05;;
24631;SDS011;59977;48.782;9.190;2023-07-24T05:58:10;19.08;;;9.25;;
24631;SDS011;59977;48.782;9.190;2023-07-24T06:00:36;24.85;;;8.45;;
24631;SDS011;59977;48.782;9.190;2023-07-24T06:03:03;27.05;;;8.68;;
24631;SDS011;59977;48.782;9.190;2023-07-24T06:05:29;21.67;;;9.18;;
24631;SDS011;59977;48.782;9.190;2023-07-24T06:07:55;29.92;;;9.57;;
24631;SDS011;59977;48.782;9.190;2023-07-24T06:10:21;19.85;;;8.88;;
24631;SDS011;59977;48.782;9.190;2023-07-24T06:12:47;20.65;;;8.40;;
24631;SDS011;59977;48.782;9.190;2023-07-24T06:15:13;38.08;;;10.20;;
24631;SDS011;59977;48.782;9.190;2023-07-24T06:17:39;36.00;;;11.07;;
24631;SDS011;59977;48.782;9.190;2023-07-24T06:20:05;31.67;;;10.35;;
24631;SDS011;59977;48.782;9.190;2023-07-24T06:22:32;31.88;;;10.65;;
24631;SDS011;59977;48.782;9.190;2023-07-24T06:24:58;24.08;;;9.32;;
24631;SDS011;59977;48.782;9.190;2023-07-24T06:27:24;32.10;;;9.52;;
24631;SDS011;59977;48.782;9.190;2023-07-24T06:29:52;20.42;;;9.20;;
24631;SDS011;59977;48.782;9.190;2023-07-24T06:32:18;17.08;;;9.65;;
24631;SDS011;59977;48.782;9.190;2023-07-24T06:34:44;22.95;;;9.45;;
24631;SDS011;59977;48.782;9.190;2023-07-24T06:37:10;19.80;;;9.43;;
24631;SDS011;59977;48.782;9.190;2023-07-24T06:39:36;30.58;;;10.15;;
24631;SDS011;59977;48.782;9.190;2023-07-24T06:42:02;31.73;;;9.73;;
24631;SDS011;59977;48.782;9.190;2023-07-24T06:44:29;19.52;;;8.75;;
24631;SDS011;59977;48.782;9.190;2023-07-24T06:46:54;26.27;;;10.48;;
24631;SDS011;59977;48.782;9.190;2023-07-24T06:49:20;22.65;;;9.27;;
24631;SDS011;59977;48.782;9.190;2023-07-24T06:51:46;25.83;;;8.65;;
24631;SDS011;59977;48.782;9.190;2023-07-24T06:54:13;15.40;;;8.98;;
24631;SDS011;59977;48.782;9.190;2023-07-24T06:56:39;26.50;;;9.57;;
24631;SDS011;59977;48.782;9.190;2023-07-24T06:59:05;59.17;;;11.63;;
24631;SDS011;59977;48.782;9.190;2023-07-24T07:01:31;30.65;;;10.85;;
24631;SDS011;59977;48.782;9.190;2023-07-24T07:03:57;25.70;;;9.65;;
24631;SDS011;59977;48.782;9.190;2023-07-24T07:06:23;23.70;;;9.65;;
24631;SDS011;59977;48.782;9.190;2023-07-24T07:08:49;17.23;;;9.55;;
24631;SDS011;59977;48.782;9.190;2023-07-24T07:11:15;22.58;;;9.90;;
24631;SDS011;59977;48.782;9.190;2023-07-24T07:13:41;27.08;;;9.50;;
24631;SDS011;59977;48.782;9.190;2023-07-24T07:16:07;18.00;;;8.93;;
24631;SDS011;59977;48.782;9.190;2023-07-24T07:18:33;18.45;;;9.20;;
24631;SDS011;59977;48.782;9.190;2023-07-24T07:20:59;27.88;;;9.93;;
24631;SDS011;59977;48.782;9.190;2023-07-24T07:23:25;33.13;;;11.02;;
24631;SDS011;59977;48.782;9.190;2023-07-24T07:25:51;32.78;;;9.38;;
24631;SDS011;59977;48.782;9.190;2023-07-24T07:28:17;17.92;;;8.90;;
24631;SDS011;59977;48.782;9.190;2023-07-24T07:30:44;17.55;;;8.90;;
24631;SDS011;59977;48.782;9.190;2023-07-24T07:33:10;19.52;;;9.10;;
24631;SDS011;59977;48.782;9.190;2023-07-24T07:35:36;14.65;;;8.40;;
24631;SDS011;59977;48.782;9.190;2023-07-24T07:38:02;23.45;;;9.63;;
24631;SDS011;59977;48.782;9.190;2023-07-24T07:40:29;17.88;;;8.18;;
24631;SDS011;59977;48.782;9.190;2023-07-24T07:42:55;13.63;;;8.77;;
24631;SDS011;59977;48.782;9.190;2023-07-24T07:45:22;13.32;;;8.20;;
24631;SDS011;59977;48.782;9.190;2023-07-24T07:47:48;19.30;;;9.05;;
24631;SDS011;59977;48.782;9.190;2023-07-24T07:50:14;16.63;;;8.60;;
24631;SDS011;59977;48.782;9.190;2023-07-24T07:52:40;19.65;;;8.95;;
24631;SDS011;59977;48.782;9.190;2023-07-24T07:55:06;17.50;;;8.32;;
24631;SDS011;59977;48.782;9.190;2023-07-24T07:57:35;17.77;;;9.07;;
24631;SDS011;59977;48.782;9.190;2023-07-24T08:00:02;30.00;;;9.55;;
24631;SDS011;59977;48.782;9.190;2023-07-24T08:02:28;16.88;;;8.32;;
24631;SDS011;59977;48.782;9.190;2023-07-24T08:04:55;18.75;;;8.60;;
24631;SDS011;59977;48.782;9.190;2023-07-24T08:07:21;14.48;;;8.57;;
24631;SDS011;59977;48.782;9.190;2023-07-24T08:09:47;19.33;;;8.90;;
24631;SDS011;59977;48.782;9.190;2023-07-24T08:12:13;18.77;;;9.38;;
24631;SDS011;59977;48.782;9.190;2023-07-24T08:14:39;14.05;;;8.57;;
24631;SDS011;59977;48.782;9.190;2023-07-24T08:17:05;15.50;;;9.25;;
24631;SDS011;59977;48.782;9.190;2023-07-24T08:19:31;21.73;;;8.68;;
24631;SDS011;59977;48.782;9.190;2023-07-24T08:21:57;17.23;;;8.80;;
24631;SDS011;59977;48.782;9.190;2023-07-24T08:24:23;14.73;;;8.55;;
24631;SDS011;59977;48.782;9.190;2023-07-24T08:26:49;17.58;;;8.73;;
24631;SDS011;59977;48.782;9.190;2023-07-24T08:29:15;22.48;;;9.90;;
24631;SDS011;59977;48.782;9.190;2023-07-24T08:31:41;18.95;;;9.20;;
24631;SDS011;59977;48.782;9.190;2023-07-24T08:34:07;22.63;;;9.30;;
24631;SDS011;59977;48.782;9.190;2023-07-24T08:36:33;20.08;;;9.93;;
24631;SDS011;59977;48.782;9.190;2023-07-24T08:38:59;19.30;;;9.40;;
24631;SDS011;59977;48.782;9.190;2023-07-24T08:41:25;15.27;;;9.20;;
24631;SDS011;59977;48.782;9.190;2023-07-24T08:43:52;16.67;;;8.52;;
24631;SDS011;59977;48.782;9.190;2023-07-24T08:46:18;20.63;;;8.68;;
24631;SDS011;59977;48.782;9.190;2023-07-24T08:48:45;13.65;;;8.40;;
24631;SDS011;59977;48.782;9.190;2023-07-24T08:51:12;16.38;;;8.30;;
24631;SDS011;59977;48.782;9.190;2023-07-24T08:53:41;14.35;;;7.72;;
24631;SDS011;59977;48.782;9.190;2023-07-24T08:56:07;13.05;;;7.28;;
24631;SDS011;59977;48.782;9.190;2023-07-24T08:58:34;17.25;;;7.38;;
24631;SDS011;59977;48.782;9.190;2023-07-24T09:01:01;16.95;;;6.97;;
24631;SDS011;59977;48.782;9.190;2023-07-24T09:03:27;13.52;;;6.93;;
24631;SDS011;59977;48.782;9.190;2023-07-24T09:05:54;15.98;;;6.82;;
24631;SDS011;59977;48.782;9.190;2023-07-24T09:08:36;15.50;;;6.97;;
24631;SDS011;59977;48.782;9.190;2023-07-24T09:11:03;17.60;;;7.97;;
24631;SDS011;59977;48.782;9.190;2023-07-24T09:13:29;29.05;;;8.68;;
24631;SDS011;59977;48.782;9.190;2023-07-24T09:15:56;17.23;;;8.25;;
24631;SDS011;59977;48.782;9.190;2023-07-24T09:18:22;15.40;;;7.05;;
24631;SDS011;59977;48.782;9.190;2023-07-24T09:20:48;16.70;;;7.53;;
24631;SDS011;59977;48.782;9.190;2023-07-24T09:23:15;15.45;;;7.68;;
24631;SDS011;59977;48.782;9.190;2023-07-24T09:25:42;19.70;;;7.05;;
24631;SDS011;59977;48.782;9.190;2023-07-24T09:28:08;15.27;;;7.18;;
24631;SDS011;59977;48.782;9.190;2023-07-24T09:30:35;16.45;;;7.50;;
24631;SDS011;59977;48.782;9.190;2023-07-24T09:33:01;14.75;;;7.13;;
24631;SDS011;59977;48.782;9.190;2023-07-24T09:35:27;17.15;;;6.60;;
24631;SDS011;59977;48.782;9.190;2023-07-24T09:38:04;19.70;;;6.22;;
24631;SDS011;59977;48.782;9.190;2023-07-24T09:40:37;19.42;;;6.55;;
24631;SDS011;59977;48.782;9.190;2023-07-24T09:43:13;13.98;;;6.55;;
24631;SDS011;59977;48.782;9.190;2023-07-24T09:45:39;18.83;;;7.32;;
24631;SDS011;59977;48.782;9.190;2023-07-24T09:48:05;35.45;;;8.30;;
24631;SDS011;59977;48.782;9.190;2023-07-24T09:50:36;18.63;;;7.40;;
24631;SDS011;59977;48.782;9.190;2023-07-24T09:53:02;27.63;;;7.70;;
24631;SDS011;59977;48.782;9.190;2023-07-24T09:55:30;21.00;;;7.30;;
24631;SDS011;59977;48.782;9.190;2023-07-24T09:57:59;11.40;;;6.50;;
24631;SDS011;59977;48.782;9.190;2023-07-24T10:00:26;14.52;;;6.30;;
24631;SDS011;59977;48.782;9.190;2023-07-24T10:02:52;15.93;;;6.47;;
24631;SDS011;59977;48.782;9.190;2023-07-24T10:05:19;13.52;;;6.15;;
24631;SDS011;59977;48.782;9.190;2023-07-24T10:07:45;15.13;;;6.28;;
24631;SDS011;59977;48.782;9.190;2023-07-24T10:10:12;13.10;;;6.45;;
24631;SDS011;59977;48.782;9.190;2023-07-24T10:12:39;17.23;;;6.88;;
24631;SDS011;59977;48.782;9.190;2023-07-24T10:15:05;15.35;;;6.53;;
24631;SDS011;59977;48.782;9.190;2023-07-24T10:17:39;13.10;;;6.53;;
24631;SDS011;59977;48.782;9.190;2023-07-24T10:20:06;12.02;;;6.13;;
24631;SDS011;59977;48.782;9.190;2023-07-24T10:22:32;13.07;;;6.32;;
24631;SDS011;59977;48.782;9.190;2023-07-24T10:24:58;10.70;;;6.68;;
24631;SDS011;59977;48.782;9.190;2023-07-24T10:27:24;10.35;;;6.40;;
24631;SDS011;59977;48.782;9.190;2023-07-24T10:32:27;16.58;;;6.63;;
24631;SDS011;59977;48.782;9.190;2023-07-24T10:35:00;18.15;;;6.93;;
24631;SDS011;59977;48.782;9.190;2023-07-24T10:37:35;19.87;;;7.07;;
24631;SDS011;59977;48.782;9.190;2023-07-24T10:40:02;11.40;;;7.10;;
24631;SDS011;59977;48.782;9.190;2023-07-24T10:42:29;16.63;;;8.15;;
24631;SDS011;59977;48.782;9.190;2023-07-24T10:45:05;11.65;;;6.75;;
24631;SDS011;59977;48.782;9.190;2023-07-24T10:47:31;12.38;;;6.97;;
24631;SDS011;59977;48.782;9.190;2023-07-24T10:49:57;13.00;;;7.35;;
24631;SDS011;59977;48.782;9.190;2023-07-24T10:52:33;12.27;;;6.80;;
24631;SDS011;59977;48.782;9.190;2023-07-24T10:55:05;19.83;;;7.55;;
24631;SDS011;59977;48.782;9.190;2023-07-24T10:57:31;15.68;;;7.10;;
24631;SDS011;59977;48.782;9.190;2023-07-24T10:59:58;13.65;;;7.20;;
24631;SDS011;59977;48.782;9.190;2023-07-24T11:02:25;12.73;;;6.75;;
24631;SDS011;59977;48.782;9.190;2023-07-24T11:04:51;13.70;;;7.15;;
24631;SDS011;59977;48.782;9.190;2023-07-24T11:07:17;15.65;;;7.32;;
24631;SDS011;59977;48.782;9.190;2023-07-24T11:09:43;13.50;;;7.70;;
24631;SDS011;59977;48.782;9.190;2023-07-24T11:14:35;10.52;;;6.68;;
24631;SDS011;59977;48.782;9.190;2023-07-24T11:17:01;14.88;;;6.82;;
24631;SDS011;59977;48.782;9.190;2023-07-24T11:19:27;14.13;;;6.97;;
24631;SDS011;59977;48.782;9.190;2023-07-24T11:21:53;16.65;;;7.15;;
24631;SDS011;59977;48.782;9.190;2023-07-24T11:24:19;14.85;;;7.53;;
24631;SDS011;59977;48.782;9.190;2023-07-24T11:26:45;14.05;;;6.70;;
24631;SDS011;59977;48.782;9.190;2023-07-24T11:29:12;12.38;;;6.72;;
24631;SDS011;59977;48.782;9.190;2023-07-24T11:31:38;11.35;;;6.78;;
24631;SDS011;59977;48.782;9.190;2023-07-24T11:34:04;9.68;;;6.85;;
24631;SDS011;59977;48.782;9.190;2023-07-24T11:36:31;13.15;;;6.93;;
24631;SDS011;59977;48.782;9.190;2023-07-24T11:38:57;11.52;;;6.57;;
24631;SDS011;59977;48.782;9.190;2023-07-24T11:41:25;12.43;;;6.38;;
24631;SDS011;59977;48.782;9.190;2023-07-24T11:43:51;10.52;;;5.82;;
24631;SDS011;59977;48.782;9.190;2023-07-24T11:46:24;9.25;;;5.63;;
24631;SDS011;59977;48.782;9.190;2023-07-24T11:48:50;10.13;;;6.05;;
24631;SDS011;59977;48.782;9.190;2023-07-24T11:51:18;8.55;;;5.85;;
24631;SDS011;59977;48.782;9.190;2023-07-24T11:53:45;12.65;;;6.07;;
24631;SDS011;59977;48.782;9.190;2023-07-24T11:56:14;10.88;;;6.25;;
24631;SDS011;59977;48.782;9.190;2023-07-24T11:58:41;14.27;;;6.68;;
24631;SDS011;59977;48.782;9.190;2023-07-24T12:01:07;15.55;;;6.03;;
24631;SDS011;59977;48.782;9.190;2023-07-24T12:03:33;14.75;;;6.50;;
24631;SDS011;59977;48.782;9.190;2023-07-24T12:05:59;13.85;;;6.78;;
24631;SDS011;59977;48.782;9.190;2023-07-24T12:08:32;14.10;;;7.13;;
24631;SDS011;59977;48.782;9.190;2023-07-24T12:10:59;22.27;;;7.00;;
24631;SDS011;59977;48.782;9.190;2023-07-24T12:13:25;13.73;;;6.82;;
24631;SDS011;59977;48.782;9.190;2023-07-24T12:15:51;11.63;;;6.07;;
24631;SDS011;59977;48.782;9.190;2023-07-24T12:18:17;12.35;;;6.20;;
24631;SDS011;59977;48.782;9.190;2023-07-24T12:20:43;10.55;;;6.43;;
24631;SDS011;59977;48.782;9.190;2023-07-24T12:23:09;16.85;;;6.78;;
24631;SDS011;59977;48.782;9.190;2023-07-24T12:25:35;13.02;;;6.60;;
24631;SDS011;59977;48.782;9.190;2023-07-24T12:28:01;9.70;;;6.68;;
24631;SDS011;59977;48.782;9.190;2023-07-24T12:30:27;14.48;;;6.63;;
24631;SDS011;59977;48.782;9.190;2023-07-24T12:32:53;11.73;;;6.85;;
24631;SDS011;59977;48.782;9.190;2023-07-24T12:35:19;13.00;;;6.22;;
24631;SDS011;59977;48.782;9.190;2023-07-24T12:37:45;9.82;;;6.43;;
24631;SDS011;59977;48.782;9.190;2023-07-24T12:40:11;12.40;;;6.20;;
24631;SDS011;59977;48.782;9.190;2023-07-24T12:42:38;12.40;;;6.10;;
24631;SDS011;59977;48.782;9.190;2023-07-24T12:45:04;10.80;;;6.13;;
24631;SDS011;59977;48.782;9.190;2023-07-24T12:47:31;11.02;;;6.60;;
24631;SDS011;59977;48.782;9.190;2023-07-24T12:49:57;13.63;;;6.40;;
24631;SDS011;59977;48.782;9.190;2023-07-24T12:52:24;21.65;;;6.47;;
24631;SDS011;59977;48.782;9.190;2023-07-24T12:54:50;10.00;;;6.28;;
24631;SDS011;59977;48.782;9.190;2023-07-24T12:57:16;12.20;;;6.15;;
24631;SDS011;59977;48.782;9.190;2023-07-24T12:59:42;9.00;;;5.70;;
24631;SDS011;59977;48.782;9.190;2023-07-24T13:02:08;16.23;;;5.88;;
24631;SDS011;59977;48.782;9.190;2023-07-24T13:04:34;8.68;;;5.22;;
24631;SDS011;59977;48.782;9.190;2023-07-24T13:07:00;9.55;;;5.70;;
24631;SDS011;59977;48.782;9.190;2023-07-24T13:09:27;9.93;;;5.80;;
24631;SDS011;59977;48.782;9.190;2023-07-24T13:11:53;8.60;;;5.53;;
24631;SDS011;59977;48.782;9.190;2023-07-24T13:14:19;9.63;;;5.38;;
24631;SDS011;59977;48.782;9.190;2023-07-24T13:16:45;10.98;;;5.93;;
24631;SDS011;59977;48.782;9.190;2023-07-24T13:19:12;9.73;;;5.60;;
24631;SDS011;59977;48.782;9.190;2023-07-24T13:21:38;9.18;;;5.88;;
24631;SDS011;59977;48.782;9.190;2023-07-24T13:24:08;13.88;;;5.47;;
24631;SDS011;59977;48.782;9.190;2023-07-24T13:26:34;9.60;;;5.45;;
24631;SDS011;59977;48.782;9.190;2023-07-24T13:29:00;12.73;;;5.60;;
24631;SDS011;59977;48.782;9.190;2023-07-24T13:31:26;7.15;;;5.47;;
24631;SDS011;59977;48.782;9.190;2023-07-24T13:33:53;10.43;;;5.40;;
24631;SDS011;59977;48.782;9.190;2023-07-24T13:36:19;8.02;;;4.97;;
24631;SDS011;59977;48.782;9.190;2023-07-24T13:38:45;16.13;;;5.63;;
24631;SDS011;59977;48.782;9.190;2023-07-24T13:41:13;9.13;;;5.38;;
24631;SDS011;59977;48.782;9.190;2023-07-24T13:43:39;7.80;;;5.28;;
24631;SDS011;59977;48.782;9.190;2023-07-24T13:46:05;7.65;;;5.20;;
24631;SDS011;59977;48.782;9.190;2023-07-24T13:48:33;8.35;;;5.60;;
24631;SDS011;59977;48.782;9.190;2023-07-24T13:50:59;7.90;;;5.43;;
24631;SDS011;59977;48.782;9.190;2023-07-24T13:53:25;9.52;;;4.85;;
24631;SDS011;59977;48.782;9.190;2023-07-24T13:55:51;9.45;;;5.30;;
24631;SDS011;59977;48.782;9.190;2023-07-24T13:58:17;9.50;;;5.05;;
24631;SDS011;59977;48.782;9.190;2023-07-24T14:00:43;6.07;;;4.47;;
24631;SDS011;59977;48.782;9.190;2023-07-24T14:03:09;17.67;;;5.13;;
24631;SDS011;59977;48.782;9.190;2023-07-24T14:05:35;7.78;;;5.00;;
24631;SDS011;59977;48.782;9.190;2023-07-24T14:08:04;7.15;;;4.85;;
24631;SDS011;59977;48.782;9.190;2023-07-24T14:10:30;6.80;;;4.60;;
24631;SDS011;59977;48.782;9.190;2023-07-24T14:12:56;7.07;;;4.85;;
24631;SDS011;59977;48.782;9.190;2023-07-24T14:15:23;6.07;;;4.60;;
24631;SDS011;59977;48.782;9.190;2023-07-24T14:17:49;9.88;;;4.60;;
24631;SDS011;59977;48.782;9.190;2023-07-24T14:20:15;6.90;;;4.93;;
24631;SDS011;59977;48.782;9.190;2023-07-24T14:22:41;8.63;;;4.78;;
24631;SDS011;59977;48.782;9.190;2023-07-24T14:25:07;6.80;;;4.05;;
24631;SDS011;59977;48.782;9.190;2023-07-24T14:27:33;5.20;;;4.10;;
24631;SDS011;59977;48.782;9.190;2023-07-24T14:29:59;6.75;;;4.38;;
24631;SDS011;59977;48.782;9.190;2023-07-24T14:32:25;6.40;;;4.07;;
24631;SDS011;59977;48.782;9.190;2023-07-24T14:34:51;6.03;;;4.05;;
24631;SDS011;59977;48.782;9.190;2023-07-24T14:37:18;7.22;;;4.88;;
24631;SDS011;59977;48.782;9.190;2023-07-24T14:39:44;5.60;;;4.05;;
24631;SDS011;59977;48.782;9.190;2023-07-24T14:42:10;5.85;;;4.40;;